This is the latest recevied weather packets stored in our database for station/object XE1GMR. If no packets are shown the sender has not sent any weather packets the latest 1 day(s).
| Time | Temp. | Humidity | Pressure | Rain* | Wind** | Luminosity | Snow |
|---|---|---|---|---|---|---|---|
| 1778024549 | 28.33° C | 34% | 1119 hPa | 0 mm | 0.89 m/s, 243° | 59 W/m² | - |
| 1778024240 | 28.89° C | 33% | 1119.2 hPa | 0 mm | 1.34 m/s, 233° | 67 W/m² | - |
| 1778023938 | 28.89° C | 33% | 1119.3 hPa | 0 mm | 1.79 m/s, 236° | 80 W/m² | - |
| 1778023635 | 29.44° C | 32% | 1119.1 hPa | 0 mm | 1.79 m/s, 323° | 94 W/m² | - |
| 1778023332 | 29.44° C | 32% | 1119.1 hPa | 0 mm | 2.68 m/s, 195° | 102 W/m² | - |
| 1778023030 | 29.44° C | 33% | 1119.2 hPa | 0 mm | 0.89 m/s, 283° | 124 W/m² | - |
| 1778022729 | 30° C | 32% | 1119.1 hPa | 0 mm | 2.24 m/s, 227° | 146 W/m² | - |
| 1778022426 | 30° C | 32% | 1119.1 hPa | 0 mm | 1.34 m/s, 205° | 164 W/m² | - |
| 1778022122 | 30° C | 32% | 1119.1 hPa | 0 mm | 2.68 m/s, 236° | 206 W/m² | - |
| 1778021819 | 30° C | 32% | 1119.3 hPa | 0 mm | 1.79 m/s, 245° | 221 W/m² | - |
| 1778021516 | 30° C | 33% | 1119.1 hPa | 0 mm | 1.34 m/s, 183° | 223 W/m² | - |
| 1778021211 | 30° C | 33% | 1119 hPa | 0 mm | 1.79 m/s, 289° | 235 W/m² | - |
| 1778020910 | 30.56° C | 32% | 1119.1 hPa | 0 mm | 1.34 m/s, 181° | 272 W/m² | - |
| 1778020607 | 30.56° C | 32% | 1119 hPa | 0 mm | 1.34 m/s, 215° | 289 W/m² | - |
| 1778020302 | 30° C | 34% | 1119 hPa | 0 mm | 1.34 m/s, 217° | 310 W/m² | - |
| 1778019999 | 30° C | 33% | 1119.1 hPa | 0 mm | 1.79 m/s, 240° | 357 W/m² | - |
| 1778019695 | 30.56° C | 33% | 1119 hPa | 0 mm | 1.34 m/s, 204° | 388 W/m² | - |
| 1778019391 | 30.56° C | 32% | 1119.1 hPa | 0 mm | 2.24 m/s, 132° | 396 W/m² | - |
| 1778019088 | 30° C | 34% | 1119.1 hPa | 0 mm | 0.89 m/s, 44° | 317 W/m² | - |
| 1778018786 | 30° C | 33% | 1119.3 hPa | 0 mm | 2.24 m/s, 308° | 426 W/m² | - |
| 1778018483 | 30.56° C | 32% | 1119.3 hPa | 0 mm | 1.34 m/s, 238° | 437 W/m² | - |
| 1778018181 | 30° C | 34% | 1119.2 hPa | 0 mm | 1.34 m/s, 236° | 423 W/m² | - |
| 1778017879 | 31.11° C | 33% | 1119.5 hPa | 0 mm | 3.13 m/s, 208° | 392 W/m² | - |
| 1778017577 | 30° C | 35% | 1119.5 hPa | 0 mm | 0.45 m/s, 297° | 440 W/m² | - |
| 1778017273 | 30.56° C | 33% | 1119.4 hPa | 0 mm | 0.89 m/s, 218° | 425 W/m² | - |
* Rain latest hour (hover to see other rain measurements)
** Current wind speed in m/s (hover to see current wind gust speed)